Time,TemperatureF,DewpointF,PressureIn,WindDirection,WindDirectionDegrees,WindSpeedMPH,WindSpeedGustMPH,Humidity,HourlyPrecipIn,Conditions,Clouds,dailyrainin,SoftwareType,DateUTC
2013-02-19 15:15:00,43.0,27.5,29.85,NE,45,6.0,26.0,54,0.01,,,0.19,Weather View 32 v70,2013-02-19 20:15:00,
2013-02-19 16:15:00,41.0,22.8,29.87,SSW,202,6.0,28.0,48,0.00,,,0.19,Weather View 32 v70,2013-02-19 21:15:00,
2013-02-19 16:30:00,42.0,22.2,29.86,SSW,202,6.0,28.0,45,0.00,,,0.19,Weather View 32 v70,2013-02-19 21:30:00,
2013-02-19 16:45:00,43.0,22.5,29.87,NW,315,2.0,28.0,44,0.00,,,0.19,Weather View 32 v70,2013-02-19 21:45:00,
2013-02-19 17:00:00,41.0,21.3,29.88,SW,225,6.0,28.0,45,0.00,,,0.19,Weather View 32 v70,2013-02-19 22:00:00,
2013-02-19 17:15:00,41.0,20.7,29.89,SW,225,5.0,26.0,44,0.00,,,0.19,Weather View 32 v70,2013-02-19 22:15:00,
2013-02-19 17:16:00,41.0,20.7,29.89,SW,225,5.0,26.0,44,0.00,,,0.19,Weather View 32 v70,2013-02-19 22:16:00,
2013-02-19 17:30:00,39.0,19.4,29.90,South,180,1.0,26.0,45,0.00,,,0.19,Weather View 32 v70,2013-02-19 22:30:00,
2013-02-19 17:45:00,38.0,18.5,29.91,WSW,247,13.0,26.0,45,0.00,,,0.19,Weather View 32 v70,2013-02-19 22:45:00,
2013-02-19 18:00:00,38.0,20.0,29.92,West,270,9.0,26.0,48,0.00,,,0.19,Weather View 32 v70,2013-02-19 23:00:00,
2013-02-19 18:15:00,37.0,18.6,29.94,West,270,7.0,23.0,47,0.00,,,0.19,Weather View 32 v70,2013-02-19 23:15:00,
2013-02-19 18:30:00,36.0,17.7,29.95,West,270,2.0,23.0,47,0.00,,,0.19,Weather View 32 v70,2013-02-19 23:30:00,
2013-02-19 18:45:00,35.0,16.3,29.96,SSW,202,10.0,23.0,46,0.00,,,0.19,Weather View 32 v70,2013-02-19 23:45:00,
2013-02-19 19:00:00,35.0,16.8,29.97,North,360,8.0,23.0,47,0.00,,,0.19,Weather View 32 v70,2013-02-20 00:00:00,
2013-02-19 19:15:00,34.0,16.4,29.99,NW,315,7.0,23.0,48,0.00,,,0.19,Weather View 32 v70,2013-02-20 00:15:00,
2013-02-19 19:30:00,33.0,16.4,29.99,NE,45,9.0,23.0,50,0.00,,,0.19,Weather View 32 v70,2013-02-20 00:30:00,
2013-02-19 19:45:00,33.0,17.3,30.00,SSW,202,1.0,23.0,52,0.00,,,0.19,Weather View 32 v70,2013-02-20 00:45:00,
2013-02-19 20:00:00,32.0,17.2,30.00,West,270,5.0,20.0,54,0.00,,,0.19,Weather View 32 v70,2013-02-20 01:00:00,
2013-02-19 20:15:00,32.0,16.4,30.00,WNW,292,3.0,19.0,52,0.00,,,0.19,Weather View 32 v70,2013-02-20 01:15:00,
2013-02-19 20:30:00,32.0,17.6,30.02,WSW,247,13.0,25.0,55,0.00,,,0.19,Weather View 32 v70,2013-02-20 01:30:00,
2013-02-19 20:45:00,32.0,18.1,30.02,NE,45,10.0,25.0,56,0.00,,,0.19,Weather View 32 v70,2013-02-20 01:45:00,
2013-02-19 21:00:00,31.0,16.7,30.02,SSW,202,7.0,25.0,55,0.00,,,0.19,Weather View 32 v70,2013-02-20 02:00:00,
2013-02-19 21:15:00,31.0,17.1,30.02,WNW,292,12.0,25.0,56,0.00,,,0.19,Weather View 32 v70,2013-02-20 02:15:00,
2013-02-19 21:30:00,31.0,17.1,30.02,NW,315,5.0,23.0,56,0.00,,,0.19,Weather View 32 v70,2013-02-20 02:30:00,
2013-02-19 21:45:00,30.0,17.0,30.04,South,180,2.0,23.0,58,0.00,,,0.19,Weather View 32 v70,2013-02-20 02:45:00,
2013-02-19 22:00:00,30.0,17.8,30.04,WNW,292,3.0,23.0,60,0.00,,,0.19,Weather View 32 v70,2013-02-20 03:00:00,
2013-02-19 22:15:00,30.0,17.0,30.04,WNW,292,6.0,23.0,58,0.00,,,0.19,Weather View 32 v70,2013-02-20 03:15:00,
2013-02-19 22:30:00,29.0,16.1,30.04,SSW,202,2.0,22.0,58,0.00,,,0.19,Weather View 32 v70,2013-02-20 03:30:00,
2013-02-19 22:45:00,29.0,15.3,30.04,WSW,247,8.0,22.0,56,0.00,,,0.19,Weather View 32 v70,2013-02-20 03:45:00,
2013-02-19 23:00:00,29.0,15.7,30.06,South,180,6.0,24.0,57,0.00,,,0.19,Weather View 32 v70,2013-02-20 04:00:00,
2013-02-19 23:15:00,29.0,16.1,30.05,SW,225,9.0,24.0,58,0.00,,,0.19,Weather View 32 v70,2013-02-20 04:15:00,
2013-02-19 23:20:00,29.0,16.1,30.05,SW,225,9.0,24.0,58,0.00,,,0.19,Weather View 32 v70,2013-02-20 04:20:00,
2013-02-19 23:30:00,28.0,15.1,30.05,SW,225,9.0,24.0,58,0.00,,,0.19,Weather View 32 v70,2013-02-20 04:30:00,
2013-02-19 23:45:00,28.0,15.5,30.06,West,270,6.0,24.0,59,0.00,,,0.19,Weather View 32 v70,2013-02-20 04:45:00,